sensor_id;sensor_type;location;lat;lon;timestamp;P1;durP1;ratioP1;P2;durP2;ratioP2
76548;SDS011;65391;52.068;4.542;2023-07-31T00:00:05;14.8;;;4.1;;
76548;SDS011;65391;52.068;4.542;2023-07-31T00:02:30;14.8;;;4.1;;
76548;SDS011;65391;52.068;4.542;2023-07-31T00:04:55;14.8;;;4.1;;
76548;SDS011;65391;52.068;4.542;2023-07-31T00:07:20;12.5;;;4.2;;
76548;SDS011;65391;52.068;4.542;2023-07-31T00:09:45;12.5;;;4.2;;
76548;SDS011;65391;52.068;4.542;2023-07-31T00:12:10;12.5;;;4.2;;
76548;SDS011;65391;52.068;4.542;2023-07-31T00:14:35;12.5;;;4.2;;
76548;SDS011;65391;52.068;4.542;2023-07-31T00:17:00;11.2;;;3.7;;
76548;SDS011;65391;52.068;4.542;2023-07-31T00:19:25;11.2;;;3.7;;
76548;SDS011;65391;52.068;4.542;2023-07-31T00:21:50;11.2;;;3.7;;
76548;SDS011;65391;52.068;4.542;2023-07-31T00:24:15;11.2;;;3.7;;
76548;SDS011;65391;52.068;4.542;2023-07-31T00:26:40;11.2;;;3.7;;
76548;SDS011;65391;52.068;4.542;2023-07-31T00:29:05;11.7;;;3.3;;
76548;SDS011;65391;52.068;4.542;2023-07-31T00:31:30;11.7;;;3.3;;
76548;SDS011;65391;52.068;4.542;2023-07-31T00:33:55;11.7;;;3.3;;
76548;SDS011;65391;52.068;4.542;2023-07-31T00:36:20;11.7;;;3.3;;
76548;SDS011;65391;52.068;4.542;2023-07-31T00:38:45;12.1;;;3.7;;
76548;SDS011;65391;52.068;4.542;2023-07-31T00:41:10;12.1;;;3.7;;
76548;SDS011;65391;52.068;4.542;2023-07-31T00:43:35;12.1;;;3.7;;
76548;SDS011;65391;52.068;4.542;2023-07-31T00:46:00;12.1;;;3.7;;
76548;SDS011;65391;52.068;4.542;2023-07-31T00:48:25;10.6;;;3;;
76548;SDS011;65391;52.068;4.542;2023-07-31T00:50:50;10.6;;;3;;
76548;SDS011;65391;52.068;4.542;2023-07-31T00:53:15;10.6;;;3;;
76548;SDS011;65391;52.068;4.542;2023-07-31T00:55:40;10.6;;;3;;
76548;SDS011;65391;52.068;4.542;2023-07-31T00:58:05;10.9;;;3.4;;
76548;SDS011;65391;52.068;4.542;2023-07-31T01:00:30;10.9;;;3.4;;
76548;SDS011;65391;52.068;4.542;2023-07-31T01:02:55;10.9;;;3.4;;
76548;SDS011;65391;52.068;4.542;2023-07-31T01:05:23;10.9;;;3.4;;
76548;SDS011;65391;52.068;4.542;2023-07-31T01:07:50;10.4;;;2.8;;
76548;SDS011;65391;52.068;4.542;2023-07-31T01:10:12;10.4;;;2.8;;
76548;SDS011;65391;52.068;4.542;2023-07-31T01:12:35;10.4;;;2.8;;
76548;SDS011;65391;52.068;4.542;2023-07-31T01:15:02;10.4;;;2.8;;
76548;SDS011;65391;52.068;4.542;2023-07-31T01:17:25;13.5;;;3.6;;
76548;SDS011;65391;52.068;4.542;2023-07-31T01:19:50;13.5;;;3.6;;
76548;SDS011;65391;52.068;4.542;2023-07-31T01:22:27;13.5;;;3.6;;
76548;SDS011;65391;52.068;4.542;2023-07-31T01:24:42;13.5;;;3.6;;
76548;SDS011;65391;52.068;4.542;2023-07-31T01:27:06;13.5;;;3.6;;
76548;SDS011;65391;52.068;4.542;2023-07-31T01:29:33;10.6;;;3.2;;
76548;SDS011;65391;52.068;4.542;2023-07-31T01:31:55;10.6;;;3.2;;
76548;SDS011;65391;52.068;4.542;2023-07-31T01:34:20;10.6;;;3.2;;
76548;SDS011;65391;52.068;4.542;2023-07-31T01:36:45;10.6;;;3.2;;
76548;SDS011;65391;52.068;4.542;2023-07-31T01:39:10;12.7;;;3.9;;
76548;SDS011;65391;52.068;4.542;2023-07-31T01:41:35;12.7;;;3.9;;
76548;SDS011;65391;52.068;4.542;2023-07-31T01:44:00;12.7;;;3.9;;
76548;SDS011;65391;52.068;4.542;2023-07-31T01:46:25;12.7;;;3.9;;
76548;SDS011;65391;52.068;4.542;2023-07-31T01:48:50;13.6;;;3.9;;
76548;SDS011;65391;52.068;4.542;2023-07-31T01:51:15;13.6;;;3.9;;
76548;SDS011;65391;52.068;4.542;2023-07-31T01:53:40;13.6;;;3.9;;
76548;SDS011;65391;52.068;4.542;2023-07-31T01:56:05;13.6;;;3.9;;
76548;SDS011;65391;52.068;4.542;2023-07-31T01:58:30;13.5;;;3.9;;
76548;SDS011;65391;52.068;4.542;2023-07-31T02:00:55;13.5;;;3.9;;
76548;SDS011;65391;52.068;4.542;2023-07-31T02:03:20;13.5;;;3.9;;
76548;SDS011;65391;52.068;4.542;2023-07-31T02:05:45;13.5;;;3.9;;
76548;SDS011;65391;52.068;4.542;2023-07-31T02:08:10;14.1;;;4.1;;
76548;SDS011;65391;52.068;4.542;2023-07-31T02:10:35;14.1;;;4.1;;
76548;SDS011;65391;52.068;4.542;2023-07-31T02:13:00;14.1;;;4.1;;
76548;SDS011;65391;52.068;4.542;2023-07-31T02:15:25;14.1;;;4.1;;
76548;SDS011;65391;52.068;4.542;2023-07-31T02:17:50;12;;;3.5;;
76548;SDS011;65391;52.068;4.542;2023-07-31T02:20:15;12;;;3.5;;
76548;SDS011;65391;52.068;4.542;2023-07-31T02:22:40;12;;;3.5;;
76548;SDS011;65391;52.068;4.542;2023-07-31T02:25:05;12;;;3.5;;
76548;SDS011;65391;52.068;4.542;2023-07-31T02:27:30;15.2;;;4.6;;
76548;SDS011;65391;52.068;4.542;2023-07-31T02:29:55;15.2;;;4.6;;
76548;SDS011;65391;52.068;4.542;2023-07-31T02:32:20;15.2;;;4.6;;
76548;SDS011;65391;52.068;4.542;2023-07-31T02:34:45;15.2;;;4.6;;
76548;SDS011;65391;52.068;4.542;2023-07-31T02:37:10;15.2;;;4.6;;
76548;SDS011;65391;52.068;4.542;2023-07-31T02:39:35;16;;;4.4;;
76548;SDS011;65391;52.068;4.542;2023-07-31T02:42:00;16;;;4.4;;
76548;SDS011;65391;52.068;4.542;2023-07-31T02:44:25;16;;;4.4;;
76548;SDS011;65391;52.068;4.542;2023-07-31T02:46:50;16;;;4.4;;
76548;SDS011;65391;52.068;4.542;2023-07-31T02:49:15;16.1;;;4.4;;
76548;SDS011;65391;52.068;4.542;2023-07-31T02:51:40;16.1;;;4.4;;
76548;SDS011;65391;52.068;4.542;2023-07-31T02:54:05;16.1;;;4.4;;
76548;SDS011;65391;52.068;4.542;2023-07-31T02:56:30;16.1;;;4.4;;
76548;SDS011;65391;52.068;4.542;2023-07-31T02:58:55;15;;;4.4;;
76548;SDS011;65391;52.068;4.542;2023-07-31T03:01:20;15;;;4.4;;
76548;SDS011;65391;52.068;4.542;2023-07-31T03:03:45;15;;;4.4;;
76548;SDS011;65391;52.068;4.542;2023-07-31T03:06:10;15;;;4.4;;
76548;SDS011;65391;52.068;4.542;2023-07-31T03:08:35;15.1;;;4.3;;
76548;SDS011;65391;52.068;4.542;2023-07-31T03:11:00;15.1;;;4.3;;
76548;SDS011;65391;52.068;4.542;2023-07-31T03:13:25;15.1;;;4.3;;
76548;SDS011;65391;52.068;4.542;2023-07-31T03:15:50;15.1;;;4.3;;
76548;SDS011;65391;52.068;4.542;2023-07-31T03:18:15;15.6;;;4.3;;
76548;SDS011;65391;52.068;4.542;2023-07-31T03:20:42;15.6;;;4.3;;
76548;SDS011;65391;52.068;4.542;2023-07-31T03:23:06;15.6;;;4.3;;
76548;SDS011;65391;52.068;4.542;2023-07-31T03:25:30;15.6;;;4.3;;
76548;SDS011;65391;52.068;4.542;2023-07-31T03:27:55;16;;;4.8;;
76548;SDS011;65391;52.068;4.542;2023-07-31T03:30:20;16;;;4.8;;
76548;SDS011;65391;52.068;4.542;2023-07-31T03:32:45;16;;;4.8;;
76548;SDS011;65391;52.068;4.542;2023-07-31T03:35:10;16;;;4.8;;
76548;SDS011;65391;52.068;4.542;2023-07-31T03:37:35;14.6;;;4.1;;
76548;SDS011;65391;52.068;4.542;2023-07-31T03:40:00;14.6;;;4.1;;
76548;SDS011;65391;52.068;4.542;2023-07-31T03:42:25;14.6;;;4.1;;
76548;SDS011;65391;52.068;4.542;2023-07-31T03:44:50;14.6;;;4.1;;
76548;SDS011;65391;52.068;4.542;2023-07-31T03:47:15;14.6;;;4.1;;
76548;SDS011;65391;52.068;4.542;2023-07-31T03:49:41;14.9;;;4.5;;
76548;SDS011;65391;52.068;4.542;2023-07-31T03:52:06;14.9;;;4.5;;
76548;SDS011;65391;52.068;4.542;2023-07-31T03:54:30;14.9;;;4.5;;
76548;SDS011;65391;52.068;4.542;2023-07-31T03:56:55;14.9;;;4.5;;
76548;SDS011;65391;52.068;4.542;2023-07-31T03:59:20;12;;;3.4;;
76548;SDS011;65391;52.068;4.542;2023-07-31T04:01:45;12;;;3.4;;
76548;SDS011;65391;52.068;4.542;2023-07-31T04:04:10;12;;;3.4;;
76548;SDS011;65391;52.068;4.542;2023-07-31T04:06:35;12;;;3.4;;
76548;SDS011;65391;52.068;4.542;2023-07-31T04:09:01;8.1;;;2;;
76548;SDS011;65391;52.068;4.542;2023-07-31T04:11:25;8.1;;;2;;
76548;SDS011;65391;52.068;4.542;2023-07-31T04:13:50;8.1;;;2;;
76548;SDS011;65391;52.068;4.542;2023-07-31T04:16:15;8.1;;;2;;
76548;SDS011;65391;52.068;4.542;2023-07-31T04:18:40;4;;;1.3;;
76548;SDS011;65391;52.068;4.542;2023-07-31T04:21:05;4;;;1.3;;
76548;SDS011;65391;52.068;4.542;2023-07-31T04:23:30;4;;;1.3;;
76548;SDS011;65391;52.068;4.542;2023-07-31T04:25:55;4;;;1.3;;
76548;SDS011;65391;52.068;4.542;2023-07-31T04:28:20;5.3;;;1.1;;
76548;SDS011;65391;52.068;4.542;2023-07-31T04:30:45;5.3;;;1.1;;
76548;SDS011;65391;52.068;4.542;2023-07-31T04:33:10;5.3;;;1.1;;
76548;SDS011;65391;52.068;4.542;2023-07-31T04:35:36;5.3;;;1.1;;
76548;SDS011;65391;52.068;4.542;2023-07-31T04:38:00;5.5;;;0.8;;
76548;SDS011;65391;52.068;4.542;2023-07-31T04:40:26;5.5;;;0.8;;
76548;SDS011;65391;52.068;4.542;2023-07-31T04:42:50;5.5;;;0.8;;
76548;SDS011;65391;52.068;4.542;2023-07-31T04:45:15;5.5;;;0.8;;
76548;SDS011;65391;52.068;4.542;2023-07-31T04:47:40;2.3;;;0.8;;
76548;SDS011;65391;52.068;4.542;2023-07-31T04:50:06;2.3;;;0.8;;
76548;SDS011;65391;52.068;4.542;2023-07-31T04:52:31;2.3;;;0.8;;
76548;SDS011;65391;52.068;4.542;2023-07-31T04:54:55;2.3;;;0.8;;
76548;SDS011;65391;52.068;4.542;2023-07-31T04:57:20;2.3;;;0.8;;
76548;SDS011;65391;52.068;4.542;2023-07-31T04:59:45;4.1;;;1;;
76548;SDS011;65391;52.068;4.542;2023-07-31T05:02:11;4.1;;;1;;
76548;SDS011;65391;52.068;4.542;2023-07-31T05:04:36;4.1;;;1;;
76548;SDS011;65391;52.068;4.542;2023-07-31T05:07:01;4.1;;;1;;
76548;SDS011;65391;52.068;4.542;2023-07-31T05:09:25;5.1;;;1.4;;
76548;SDS011;65391;52.068;4.542;2023-07-31T05:11:50;5.1;;;1.4;;
76548;SDS011;65391;52.068;4.542;2023-07-31T05:14:15;5.1;;;1.4;;
76548;SDS011;65391;52.068;4.542;2023-07-31T05:16:41;5.1;;;1.4;;
76548;SDS011;65391;52.068;4.542;2023-07-31T05:19:06;3.2;;;1.2;;
76548;SDS011;65391;52.068;4.542;2023-07-31T05:21:31;3.2;;;1.2;;
76548;SDS011;65391;52.068;4.542;2023-07-31T05:23:56;3.2;;;1.2;;
76548;SDS011;65391;52.068;4.542;2023-07-31T05:26:21;3.2;;;1.2;;
76548;SDS011;65391;52.068;4.542;2023-07-31T05:28:46;3.8;;;0.8;;
76548;SDS011;65391;52.068;4.542;2023-07-31T05:31:11;3.8;;;0.8;;
76548;SDS011;65391;52.068;4.542;2023-07-31T05:33:36;3.8;;;0.8;;
76548;SDS011;65391;52.068;4.542;2023-07-31T05:36:01;3.8;;;0.8;;
76548;SDS011;65391;52.068;4.542;2023-07-31T05:38:26;1.8;;;0.7;;
76548;SDS011;65391;52.068;4.542;2023-07-31T05:40:51;1.8;;;0.7;;
76548;SDS011;65391;52.068;4.542;2023-07-31T05:43:16;1.8;;;0.7;;
76548;SDS011;65391;52.068;4.542;2023-07-31T05:45:41;1.8;;;0.7;;
76548;SDS011;65391;52.068;4.542;2023-07-31T05:48:06;3.7;;;0.9;;
76548;SDS011;65391;52.068;4.542;2023-07-31T05:50:31;3.7;;;0.9;;
76548;SDS011;65391;52.068;4.542;2023-07-31T05:52:56;3.7;;;0.9;;
76548;SDS011;65391;52.068;4.542;2023-07-31T05:55:21;3.7;;;0.9;;
76548;SDS011;65391;52.068;4.542;2023-07-31T05:57:46;4.2;;;1.4;;
76548;SDS011;65391;52.068;4.542;2023-07-31T06:00:11;4.2;;;1.4;;
76548;SDS011;65391;52.068;4.542;2023-07-31T06:02:36;4.2;;;1.4;;
76548;SDS011;65391;52.068;4.542;2023-07-31T06:05:01;4.2;;;1.4;;
76548;SDS011;65391;52.068;4.542;2023-07-31T06:07:26;4.2;;;1.4;;
76548;SDS011;65391;52.068;4.542;2023-07-31T06:09:51;2.3;;;0.5;;
76548;SDS011;65391;52.068;4.542;2023-07-31T06:12:16;2.3;;;0.5;;
76548;SDS011;65391;52.068;4.542;2023-07-31T06:14:41;2.3;;;0.5;;
76548;SDS011;65391;52.068;4.542;2023-07-31T06:17:06;2.3;;;0.5;;
76548;SDS011;65391;52.068;4.542;2023-07-31T06:19:31;1;;;0.5;;
76548;SDS011;65391;52.068;4.542;2023-07-31T06:21:56;1;;;0.5;;
76548;SDS011;65391;52.068;4.542;2023-07-31T06:24:21;1;;;0.5;;
76548;SDS011;65391;52.068;4.542;2023-07-31T06:26:46;1;;;0.5;;
76548;SDS011;65391;52.068;4.542;2023-07-31T06:29:11;0.7;;;0.3;;
76548;SDS011;65391;52.068;4.542;2023-07-31T06:31:36;0.7;;;0.3;;
76548;SDS011;65391;52.068;4.542;2023-07-31T06:34:01;0.7;;;0.3;;
76548;SDS011;65391;52.068;4.542;2023-07-31T06:36:26;0.7;;;0.3;;
76548;SDS011;65391;52.068;4.542;2023-07-31T06:38:51;1;;;0.4;;
76548;SDS011;65391;52.068;4.542;2023-07-31T06:41:16;1;;;0.4;;
76548;SDS011;65391;52.068;4.542;2023-07-31T06:43:41;1;;;0.4;;
76548;SDS011;65391;52.068;4.542;2023-07-31T06:46:06;1;;;0.4;;
76548;SDS011;65391;52.068;4.542;2023-07-31T06:48:31;1.1;;;0.4;;
76548;SDS011;65391;52.068;4.542;2023-07-31T06:50:56;1.1;;;0.4;;
76548;SDS011;65391;52.068;4.542;2023-07-31T06:53:21;1.1;;;0.4;;
76548;SDS011;65391;52.068;4.542;2023-07-31T06:55:46;1.1;;;0.4;;
76548;SDS011;65391;52.068;4.542;2023-07-31T06:58:11;0.7;;;0.1;;
76548;SDS011;65391;52.068;4.542;2023-07-31T07:00:36;0.7;;;0.1;;
76548;SDS011;65391;52.068;4.542;2023-07-31T07:03:01;0.7;;;0.1;;
76548;SDS011;65391;52.068;4.542;2023-07-31T07:05:26;0.7;;;0.1;;
76548;SDS011;65391;52.068;4.542;2023-07-31T07:07:51;0.5;;;0.2;;
76548;SDS011;65391;52.068;4.542;2023-07-31T07:10:16;0.5;;;0.2;;
76548;SDS011;65391;52.068;4.542;2023-07-31T07:12:41;0.5;;;0.2;;
76548;SDS011;65391;52.068;4.542;2023-07-31T07:15:06;0.5;;;0.2;;
76548;SDS011;65391;52.068;4.542;2023-07-31T07:17:31;0.5;;;0.2;;
76548;SDS011;65391;52.068;4.542;2023-07-31T07:19:56;0.8;;;0.3;;
76548;SDS011;65391;52.068;4.542;2023-07-31T07:22:21;0.8;;;0.3;;
76548;SDS011;65391;52.068;4.542;2023-07-31T07:24:46;0.8;;;0.3;;
76548;SDS011;65391;52.068;4.542;2023-07-31T07:27:11;0.8;;;0.3;;
76548;SDS011;65391;52.068;4.542;2023-07-31T07:29:37;0.3;;;0.1;;
76548;SDS011;65391;52.068;4.542;2023-07-31T07:32:01;0.3;;;0.1;;
76548;SDS011;65391;52.068;4.542;2023-07-31T07:34:27;0.3;;;0.1;;
76548;SDS011;65391;52.068;4.542;2023-07-31T07:36:51;0.3;;;0.1;;
76548;SDS011;65391;52.068;4.542;2023-07-31T07:39:16;0.5;;;0.1;;
76548;SDS011;65391;52.068;4.542;2023-07-31T07:41:41;0.5;;;0.1;;
76548;SDS011;65391;52.068;4.542;2023-07-31T07:44:07;0.5;;;0.1;;
76548;SDS011;65391;52.068;4.542;2023-07-31T07:46:31;0.5;;;0.1;;
76548;SDS011;65391;52.068;4.542;2023-07-31T07:48:56;0.4;;;0.1;;
76548;SDS011;65391;52.068;4.542;2023-07-31T07:51:22;0.4;;;0.1;;
76548;SDS011;65391;52.068;4.542;2023-07-31T07:53:46;0.4;;;0.1;;
76548;SDS011;65391;52.068;4.542;2023-07-31T07:56:11;0.4;;;0.1;;
76548;SDS011;65391;52.068;4.542;2023-07-31T07:58:36;0.8;;;0.1;;
76548;SDS011;65391;52.068;4.542;2023-07-31T08:01:01;0.8;;;0.1;;
76548;SDS011;65391;52.068;4.542;2023-07-31T08:03:26;0.8;;;0.1;;
76548;SDS011;65391;52.068;4.542;2023-07-31T08:05:51;0.8;;;0.1;;
76548;SDS011;65391;52.068;4.542;2023-07-31T08:08:16;0.9;;;0.1;;
76548;SDS011;65391;52.068;4.542;2023-07-31T08:10:41;0.9;;;0.1;;
76548;SDS011;65391;52.068;4.542;2023-07-31T08:13:06;0.9;;;0.1;;
76548;SDS011;65391;52.068;4.542;2023-07-31T08:15:31;0.9;;;0.1;;
76548;SDS011;65391;52.068;4.542;2023-07-31T08:17:56;2.4;;;0.5;;
76548;SDS011;65391;52.068;4.542;2023-07-31T08:20:21;2.4;;;0.5;;
76548;SDS011;65391;52.068;4.542;2023-07-31T08:22:46;2.4;;;0.5;;
76548;SDS011;65391;52.068;4.542;2023-07-31T08:25:11;2.4;;;0.5;;
76548;SDS011;65391;52.068;4.542;2023-07-31T08:27:36;2.4;;;0.5;;
76548;SDS011;65391;52.068;4.542;2023-07-31T08:30:01;3.3;;;0.6;;
76548;SDS011;65391;52.068;4.542;2023-07-31T08:32:26;3.3;;;0.6;;
76548;SDS011;65391;52.068;4.542;2023-07-31T08:34:51;3.3;;;0.6;;
76548;SDS011;65391;52.068;4.542;2023-07-31T08:37:16;3.3;;;0.6;;
76548;SDS011;65391;52.068;4.542;2023-07-31T08:39:41;2.6;;;0.9;;
76548;SDS011;65391;52.068;4.542;2023-07-31T08:42:07;2.6;;;0.9;;
76548;SDS011;65391;52.068;4.542;2023-07-31T08:44:31;2.6;;;0.9;;
76548;SDS011;65391;52.068;4.542;2023-07-31T08:46:56;2.6;;;0.9;;
76548;SDS011;65391;52.068;4.542;2023-07-31T08:49:21;5.9;;;0.9;;
76548;SDS011;65391;52.068;4.542;2023-07-31T08:51:46;5.9;;;0.9;;
76548;SDS011;65391;52.068;4.542;2023-07-31T08:54:11;5.9;;;0.9;;
76548;SDS011;65391;52.068;4.542;2023-07-31T08:56:36;5.9;;;0.9;;
76548;SDS011;65391;52.068;4.542;2023-07-31T08:59:02;7.1;;;1.4;;
76548;SDS011;65391;52.068;4.542;2023-07-31T09:01:27;7.1;;;1.4;;
76548;SDS011;65391;52.068;4.542;2023-07-31T09:03:51;7.1;;;1.4;;
76548;SDS011;65391;52.068;4.542;2023-07-31T09:06:16;7.1;;;1.4;;
76548;SDS011;65391;52.068;4.542;2023-07-31T09:08:41;7.9;;;1.4;;
76548;SDS011;65391;52.068;4.542;2023-07-31T09:11:06;7.9;;;1.4;;
76548;SDS011;65391;52.068;4.542;2023-07-31T09:13:31;7.9;;;1.4;;
76548;SDS011;65391;52.068;4.542;2023-07-31T09:15:56;7.9;;;1.4;;
76548;SDS011;65391;52.068;4.542;2023-07-31T09:18:21;7.3;;;1.6;;
76548;SDS011;65391;52.068;4.542;2023-07-31T09:20:46;7.3;;;1.6;;
76548;SDS011;65391;52.068;4.542;2023-07-31T09:23:12;7.3;;;1.6;;
76548;SDS011;65391;52.068;4.542;2023-07-31T09:25:36;7.3;;;1.6;;
76548;SDS011;65391;52.068;4.542;2023-07-31T09:28:02;4.6;;;1.2;;
76548;SDS011;65391;52.068;4.542;2023-07-31T09:30:26;4.6;;;1.2;;
76548;SDS011;65391;52.068;4.542;2023-07-31T09:33:00;4.6;;;1.2;;
76548;SDS011;65391;52.068;4.542;2023-07-31T09:35:19;4.6;;;1.2;;
76548;SDS011;65391;52.068;4.542;2023-07-31T09:37:41;4.6;;;1.2;;
76548;SDS011;65391;52.068;4.542;2023-07-31T09:40:07;5.6;;;1.5;;
76548;SDS011;65391;52.068;4.542;2023-07-31T09:42:31;5.6;;;1.5;;
76548;SDS011;65391;52.068;4.542;2023-07-31T09:45:06;5.6;;;1.5;;
76548;SDS011;65391;52.068;4.542;2023-07-31T09:47:21;5.6;;;1.5;;
76548;SDS011;65391;52.068;4.542;2023-07-31T09:49:46;8.2;;;2;;
76548;SDS011;65391;52.068;4.542;2023-07-31T09:52:11;8.2;;;2;;
76548;SDS011;65391;52.068;4.542;2023-07-31T09:54:36;8.2;;;2;;
76548;SDS011;65391;52.068;4.542;2023-07-31T09:57:01;8.2;;;2;;
76548;SDS011;65391;52.068;4.542;2023-07-31T09:59:26;7.7;;;1.5;;
76548;SDS011;65391;52.068;4.542;2023-07-31T10:01:51;7.7;;;1.5;;
76548;SDS011;65391;52.068;4.542;2023-07-31T10:04:16;7.7;;;1.5;;
76548;SDS011;65391;52.068;4.542;2023-07-31T10:06:42;7.7;;;1.5;;
76548;SDS011;65391;52.068;4.542;2023-07-31T10:09:08;8.2;;;1.6;;
76548;SDS011;65391;52.068;4.542;2023-07-31T10:11:32;8.2;;;1.6;;
76548;SDS011;65391;52.068;4.542;2023-07-31T10:13:56;8.2;;;1.6;;
76548;SDS011;65391;52.068;4.542;2023-07-31T10:16:21;8.2;;;1.6;;
76548;SDS011;65391;52.068;4.542;2023-07-31T10:18:46;6.7;;;1.1;;
76548;SDS011;65391;52.068;4.542;2023-07-31T10:21:11;6.7;;;1.1;;
76548;SDS011;65391;52.068;4.542;2023-07-31T10:23:36;6.7;;;1.1;;
76548;SDS011;65391;52.068;4.542;2023-07-31T10:26:01;6.7;;;1.1;;
76548;SDS011;65391;52.068;4.542;2023-07-31T10:28:26;5.4;;;0.9;;
76548;SDS011;65391;52.068;4.542;2023-07-31T10:30:51;5.4;;;0.9;;
76548;SDS011;65391;52.068;4.542;2023-07-31T10:33:16;5.4;;;0.9;;
76548;SDS011;65391;52.068;4.542;2023-07-31T10:35:41;5.4;;;0.9;;
76548;SDS011;65391;52.068;4.542;2023-07-31T10:38:09;8;;;1.5;;
76548;SDS011;65391;52.068;4.542;2023-07-31T10:40:31;8;;;1.5;;
76548;SDS011;65391;52.068;4.542;2023-07-31T10:42:57;8;;;1.5;;
76548;SDS011;65391;52.068;4.542;2023-07-31T10:45:24;8;;;1.5;;
76548;SDS011;65391;52.068;4.542;2023-07-31T10:47:46;8;;;1.5;;
76548;SDS011;65391;52.068;4.542;2023-07-31T10:50:13;7.3;;;1.8;;
76548;SDS011;65391;52.068;4.542;2023-07-31T10:52:36;7.3;;;1.8;;
76548;SDS011;65391;52.068;4.542;2023-07-31T10:55:39;7.3;;;1.8;;
76548;SDS011;65391;52.068;4.542;2023-07-31T10:57:26;7.3;;;1.8;;
76548;SDS011;65391;52.068;4.542;2023-07-31T10:59:51;9.8;;;1.9;;
76548;SDS011;65391;52.068;4.542;2023-07-31T11:02:24;9.8;;;1.9;;
76548;SDS011;65391;52.068;4.542;2023-07-31T11:04:41;9.8;;;1.9;;
76548;SDS011;65391;52.068;4.542;2023-07-31T11:07:06;9.8;;;1.9;;
76548;SDS011;65391;52.068;4.542;2023-07-31T11:09:32;8.1;;;1.4;;
76548;SDS011;65391;52.068;4.542;2023-07-31T11:11:56;8.1;;;1.4;;
76548;SDS011;65391;52.068;4.542;2023-07-31T11:14:21;8.1;;;1.4;;
76548;SDS011;65391;52.068;4.542;2023-07-31T11:16:49;8.1;;;1.4;;
76548;SDS011;65391;52.068;4.542;2023-07-31T11:19:11;6.1;;;0.8;;
76548;SDS011;65391;52.068;4.542;2023-07-31T11:21:36;6.1;;;0.8;;
76548;SDS011;65391;52.068;4.542;2023-07-31T11:24:01;6.1;;;0.8;;
76548;SDS011;65391;52.068;4.542;2023-07-31T11:26:26;6.1;;;0.8;;
76548;SDS011;65391;52.068;4.542;2023-07-31T11:28:51;5.6;;;1.6;;
76548;SDS011;65391;52.068;4.542;2023-07-31T11:31:16;5.6;;;1.6;;
76548;SDS011;65391;52.068;4.542;2023-07-31T11:33:41;5.6;;;1.6;;
76548;SDS011;65391;52.068;4.542;2023-07-31T11:36:09;5.6;;;1.6;;
76548;SDS011;65391;52.068;4.542;2023-07-31T11:38:32;7.8;;;1.1;;
76548;SDS011;65391;52.068;4.542;2023-07-31T11:40:58;7.8;;;1.1;;
76548;SDS011;65391;52.068;4.542;2023-07-31T11:43:22;7.8;;;1.1;;
76548;SDS011;65391;52.068;4.542;2023-07-31T11:45:47;7.8;;;1.1;;
76548;SDS011;65391;52.068;4.542;2023-07-31T11:48:18;5.9;;;1.3;;
76548;SDS011;65391;52.068;4.542;2023-07-31T11:50:36;5.9;;;1.3;;
76548;SDS011;65391;52.068;4.542;2023-07-31T11:53:03;5.9;;;1.3;;
76548;SDS011;65391;52.068;4.542;2023-07-31T11:55:26;5.9;;;1.3;;
76548;SDS011;65391;52.068;4.542;2023-07-31T11:57:52;5.9;;;1.3;;
76548;SDS011;65391;52.068;4.542;2023-07-31T12:00:16;10.6;;;2.1;;
76548;SDS011;65391;52.068;4.542;2023-07-31T12:02:42;10.6;;;2.1;;
76548;SDS011;65391;52.068;4.542;2023-07-31T12:05:10;10.6;;;2.1;;
76548;SDS011;65391;52.068;4.542;2023-07-31T12:07:43;10.6;;;2.1;;
76548;SDS011;65391;52.068;4.542;2023-07-31T12:09:57;7.5;;;1.6;;
76548;SDS011;65391;52.068;4.542;2023-07-31T12:12:22;7.5;;;1.6;;
76548;SDS011;65391;52.068;4.542;2023-07-31T12:14:46;7.5;;;1.6;;
76548;SDS011;65391;52.068;4.542;2023-07-31T12:17:12;7.5;;;1.6;;
76548;SDS011;65391;52.068;4.542;2023-07-31T12:19:37;3.9;;;0.8;;
76548;SDS011;65391;52.068;4.542;2023-07-31T12:22:02;3.9;;;0.8;;
76548;SDS011;65391;52.068;4.542;2023-07-31T12:24:27;3.9;;;0.8;;
76548;SDS011;65391;52.068;4.542;2023-07-31T12:26:52;3.9;;;0.8;;
76548;SDS011;65391;52.068;4.542;2023-07-31T12:29:16;4.2;;;0.6;;
76548;SDS011;65391;52.068;4.542;2023-07-31T12:31:42;4.2;;;0.6;;
76548;SDS011;65391;52.068;4.542;2023-07-31T12:34:15;4.2;;;0.6;;
76548;SDS011;65391;52.068;4.542;2023-07-31T12:36:31;4.2;;;0.6;;
76548;SDS011;65391;52.068;4.542;2023-07-31T12:38:56;5.8;;;1.1;;
76548;SDS011;65391;52.068;4.542;2023-07-31T12:41:21;5.8;;;1.1;;
76548;SDS011;65391;52.068;4.542;2023-07-31T12:43:47;5.8;;;1.1;;
76548;SDS011;65391;52.068;4.542;2023-07-31T12:46:12;5.8;;;1.1;;
76548;SDS011;65391;52.068;4.542;2023-07-31T12:48:37;3.8;;;0.8;;
76548;SDS011;65391;52.068;4.542;2023-07-31T12:51:02;3.8;;;0.8;;
76548;SDS011;65391;52.068;4.542;2023-07-31T12:53:27;3.8;;;0.8;;
76548;SDS011;65391;52.068;4.542;2023-07-31T12:55:52;3.8;;;0.8;;
76548;SDS011;65391;52.068;4.542;2023-07-31T12:58:17;2.5;;;0.8;;
76548;SDS011;65391;52.068;4.542;2023-07-31T13:00:42;2.5;;;0.8;;
76548;SDS011;65391;52.068;4.542;2023-07-31T13:03:07;2.5;;;0.8;;
76548;SDS011;65391;52.068;4.542;2023-07-31T13:05:32;2.5;;;0.8;;
76548;SDS011;65391;52.068;4.542;2023-07-31T13:07:57;2.5;;;0.8;;
76548;SDS011;65391;52.068;4.542;2023-07-31T13:10:22;3.6;;;0.7;;
76548;SDS011;65391;52.068;4.542;2023-07-31T13:12:47;3.6;;;0.7;;
76548;SDS011;65391;52.068;4.542;2023-07-31T13:15:12;3.6;;;0.7;;
76548;SDS011;65391;52.068;4.542;2023-07-31T13:17:37;3.6;;;0.7;;
76548;SDS011;65391;52.068;4.542;2023-07-31T13:20:02;2.5;;;0.6;;
76548;SDS011;65391;52.068;4.542;2023-07-31T13:22:27;2.5;;;0.6;;
76548;SDS011;65391;52.068;4.542;2023-07-31T13:24:52;2.5;;;0.6;;
76548;SDS011;65391;52.068;4.542;2023-07-31T13:27:17;2.5;;;0.6;;
76548;SDS011;65391;52.068;4.542;2023-07-31T13:29:42;4.2;;;1;;
76548;SDS011;65391;52.068;4.542;2023-07-31T13:32:07;4.2;;;1;;
76548;SDS011;65391;52.068;4.542;2023-07-31T13:34:32;4.2;;;1;;
76548;SDS011;65391;52.068;4.542;2023-07-31T13:36:57;4.2;;;1;;
76548;SDS011;65391;52.068;4.542;2023-07-31T13:39:22;1.2;;;0.5;;
76548;SDS011;65391;52.068;4.542;2023-07-31T13:41:47;1.2;;;0.5;;
76548;SDS011;65391;52.068;4.542;2023-07-31T13:44:12;1.2;;;0.5;;
76548;SDS011;65391;52.068;4.542;2023-07-31T13:46:37;1.2;;;0.5;;
76548;SDS011;65391;52.068;4.542;2023-07-31T13:49:02;2;;;0.6;;
76548;SDS011;65391;52.068;4.542;2023-07-31T13:51:27;2;;;0.6;;
76548;SDS011;65391;52.068;4.542;2023-07-31T13:53:52;2;;;0.6;;
76548;SDS011;65391;52.068;4.542;2023-07-31T13:56:17;2;;;0.6;;
76548;SDS011;65391;52.068;4.542;2023-07-31T13:58:42;1.4;;;0.4;;
76548;SDS011;65391;52.068;4.542;2023-07-31T14:01:07;1.4;;;0.4;;
76548;SDS011;65391;52.068;4.542;2023-07-31T14:03:32;1.4;;;0.4;;
76548;SDS011;65391;52.068;4.542;2023-07-31T14:05:57;1.4;;;0.4;;
76548;SDS011;65391;52.068;4.542;2023-07-31T14:08:22;0.4;;;0.2;;
76548;SDS011;65391;52.068;4.542;2023-07-31T14:10:47;0.4;;;0.2;;
76548;SDS011;65391;52.068;4.542;2023-07-31T14:13:12;0.4;;;0.2;;
76548;SDS011;65391;52.068;4.542;2023-07-31T14:15:37;0.4;;;0.2;;
76548;SDS011;65391;52.068;4.542;2023-07-31T14:18:02;0.4;;;0.2;;
76548;SDS011;65391;52.068;4.542;2023-07-31T14:20:27;1.3;;;0.2;;
76548;SDS011;65391;52.068;4.542;2023-07-31T14:22:52;1.3;;;0.2;;
76548;SDS011;65391;52.068;4.542;2023-07-31T14:25:17;1.3;;;0.2;;
76548;SDS011;65391;52.068;4.542;2023-07-31T14:27:42;1.3;;;0.2;;
76548;SDS011;65391;52.068;4.542;2023-07-31T14:30:08;0.6;;;0.2;;
76548;SDS011;65391;52.068;4.542;2023-07-31T14:32:32;0.6;;;0.2;;
76548;SDS011;65391;52.068;4.542;2023-07-31T14:34:57;0.6;;;0.2;;
76548;SDS011;65391;52.068;4.542;2023-07-31T14:37:22;0.6;;;0.2;;
76548;SDS011;65391;52.068;4.542;2023-07-31T14:39:47;0.2;;;0.1;;
76548;SDS011;65391;52.068;4.542;2023-07-31T14:42:12;0.2;;;0.1;;
76548;SDS011;65391;52.068;4.542;2023-07-31T14:44:37;0.2;;;0.1;;
76548;SDS011;65391;52.068;4.542;2023-07-31T14:47:02;0.2;;;0.1;;
76548;SDS011;65391;52.068;4.542;2023-07-31T14:49:27;0.9;;;0.2;;
76548;SDS011;65391;52.068;4.542;2023-07-31T14:51:52;0.9;;;0.2;;
76548;SDS011;65391;52.068;4.542;2023-07-31T14:54:17;0.9;;;0.2;;
76548;SDS011;65391;52.068;4.542;2023-07-31T14:56:42;0.9;;;0.2;;
76548;SDS011;65391;52.068;4.542;2023-07-31T14:59:07;0.5;;;0.2;;